Terminal Aerodrome Forecast
Issued by NWS Sterling, VA

Current Version | Previous Version | Text Only | Print | Product List | Glossary Off
Versions: 1 2 3 4 5 6 7 8 9 10 11 12 13 14 15 16 17 18 19 20 21 22 23 24 25 26 27 28

716
FTUS41 KLWX 292050 AAB
TAFDCA
TAF AMD
KDCA 292050Z 2921/3018 20005KT P6SM SCT015 OVC020 WS020/19035KT
     FM300300 21005KT 2SM BR OVC015
     FM300600 21005KT 1SM BR OVC003
     FM301700 19014G20KT 3SM -SHRA BR OVC008=

USA.gov is the U.S. government's official web portal to all federal, state and local government web resources and services.